createdAt,value
2023-10-10T00:01:07.889Z,101560.40
2023-10-10T00:03:40.978Z,101553.40
2023-10-10T00:06:09.348Z,101544.20
2023-10-10T00:08:40.940Z,101543.40
2023-10-10T00:11:14.897Z,101547.00
2023-10-10T00:13:43.648Z,101536.20
2023-10-10T00:16:26.827Z,101537.40
2023-10-10T00:18:57.065Z,101541.20
2023-10-10T00:21:24.248Z,101531.80
2023-10-10T00:23:54.266Z,101538.20
2023-10-10T00:26:26.330Z,101537.40
2023-10-10T00:28:58.017Z,101535.60
2023-10-10T00:31:27.399Z,101527.80
2023-10-10T00:33:55.625Z,101526.00
2023-10-10T00:36:36.143Z,101524.80
2023-10-10T00:39:13.302Z,101523.20
2023-10-10T00:41:49.870Z,101515.40
2023-10-10T00:44:18.178Z,101513.40
2023-10-10T00:46:55.647Z,101514.80
2023-10-10T00:49:26.738Z,101514.40
2023-10-10T00:52:00.477Z,101514.60
2023-10-10T00:54:32.278Z,101504.60
2023-10-10T00:57:01.040Z,101500.40
2023-10-10T00:59:45.422Z,101503.80
2023-10-10T01:02:17.170Z,101502.00
2023-10-10T01:04:53.668Z,101499.80
2023-10-10T01:07:22.897Z,101501.80
2023-10-10T01:10:10.447Z,101503.40
2023-10-10T01:12:37.493Z,101500.40
2023-10-10T01:15:26.156Z,101495.40
2023-10-10T01:17:57.663Z,101489.40
2023-10-10T01:20:37.126Z,101486.60
2023-10-10T01:23:04.135Z,101488.00
2023-10-10T01:25:33.389Z,101480.00
2023-10-10T01:28:14.260Z,101484.20
2023-10-10T01:31:04.286Z,101490.20
2023-10-10T01:33:36.859Z,101480.60
2023-10-10T01:36:13.346Z,101480.40
2023-10-10T01:38:44.930Z,101472.80
2023-10-10T01:41:23.011Z,101473.20
2023-10-10T01:43:58.716Z,101471.80
2023-10-10T01:46:28.339Z,101466.60
2023-10-10T01:48:58.342Z,101461.60
2023-10-10T01:51:25.392Z,101458.40
2023-10-10T01:53:56.049Z,101453.60
2023-10-10T01:56:27.825Z,101448.40
2023-10-10T01:58:55.583Z,101440.00
2023-10-10T02:01:24.747Z,101436.20
2023-10-10T02:03:54.598Z,101429.80
2023-10-10T02:06:26.314Z,101426.60
2023-10-10T02:08:52.885Z,101423.00
2023-10-10T02:11:23.040Z,101418.20
2023-10-10T02:13:51.222Z,101413.00
2023-10-10T02:16:19.427Z,101404.60
2023-10-10T02:18:51.673Z,101407.00
2023-10-10T02:21:43.804Z,101397.80
2023-10-10T02:24:33.698Z,101396.80
2023-10-10T02:27:05.637Z,101399.00
2023-10-10T02:29:32.282Z,101404.80
2023-10-10T02:32:10.465Z,101405.60
2023-10-10T02:34:38.489Z,101408.20
2023-10-10T02:37:21.518Z,101406.40
2023-10-10T02:40:08.292Z,101409.40
2023-10-10T02:42:34.842Z,101417.00
2023-10-10T02:45:01.409Z,101422.00
2023-10-10T02:47:31.159Z,101425.80
2023-10-10T02:50:01.607Z,101432.60
2023-10-10T02:52:29.255Z,101434.20
2023-10-10T02:54:56.085Z,101440.00
2023-10-10T02:57:25.738Z,101436.20
2023-10-10T03:00:16.399Z,101437.20
2023-10-10T03:02:57.765Z,101427.40
2023-10-10T03:05:50.872Z,101419.40
2023-10-10T03:08:34.958Z,101417.00
2023-10-10T03:11:14.055Z,101414.80
2023-10-10T03:14:01.787Z,101415.60
2023-10-10T03:16:28.336Z,101413.80
2023-10-10T03:18:54.920Z,101398.60
2023-10-10T03:21:45.280Z,101396.80
2023-10-10T03:24:29.169Z,101403.40
2023-10-10T03:27:21.921Z,101397.60
2023-10-10T03:29:50.659Z,101394.00
2023-10-10T03:32:26.728Z,101388.00
2023-10-10T03:34:57.782Z,101394.60
2023-10-10T03:37:27.444Z,101388.80
2023-10-10T03:40:15.133Z,101382.60
2023-10-10T03:43:00.723Z,101382.20
2023-10-10T03:45:45.823Z,101377.80
2023-10-10T03:48:31.339Z,101379.00
2023-10-10T03:51:16.611Z,101377.40
2023-10-10T03:54:01.892Z,101368.40
2023-10-10T03:56:47.239Z,101363.40
2023-10-10T03:59:32.759Z,101355.20
2023-10-10T04:02:18.105Z,101354.60
2023-10-10T04:05:19.849Z,101354.20
2023-10-10T04:08:08.787Z,101354.60
2023-10-10T04:10:54.410Z,101357.20
2023-10-10T04:13:39.780Z,101350.40
2023-10-10T04:16:28.101Z,101344.40
2023-10-10T04:19:14.718Z,101344.60
2023-10-10T04:22:00.510Z,101343.00
2023-10-10T04:24:45.803Z,101338.00
2023-10-10T04:27:31.153Z,101336.80
2023-10-10T04:30:16.432Z,101331.60
2023-10-10T04:33:01.788Z,101331.60
2023-10-10T04:35:48.495Z,101332.40
2023-10-10T04:38:34.414Z,101328.00
2023-10-10T04:41:19.710Z,101327.20
2023-10-10T04:44:04.875Z,101326.60
2023-10-10T04:46:50.132Z,101334.00
2023-10-10T04:49:35.797Z,101334.40
2023-10-10T04:52:20.893Z,101329.40
2023-10-10T04:55:07.220Z,101318.20
2023-10-10T04:57:52.468Z,101314.60
2023-10-10T05:00:37.543Z,101310.60
2023-10-10T05:03:23.200Z,101311.60
2023-10-10T05:06:20.567Z,101317.00
2023-10-10T05:09:06.347Z,101312.60
2023-10-10T05:11:52.635Z,101299.80
2023-10-10T05:14:38.401Z,101304.60
2023-10-10T05:17:23.664Z,101307.40
2023-10-10T05:20:09.912Z,101306.20
2023-10-10T05:22:56.714Z,101296.00
2023-10-10T05:25:23.512Z,101295.60
2023-10-10T05:27:59.129Z,101292.20
2023-10-10T05:30:27.885Z,101291.80
2023-10-10T05:33:03.837Z,101298.60
2023-10-10T05:35:35.629Z,101295.80
2023-10-10T05:38:02.514Z,101292.20
2023-10-10T05:40:33.840Z,101302.00
2023-10-10T05:43:04.733Z,101304.20
2023-10-10T05:45:31.346Z,101303.80
2023-10-10T05:48:00.201Z,101300.40
2023-10-10T05:50:27.749Z,101295.00
2023-10-10T05:52:54.978Z,101295.40
2023-10-10T05:55:21.576Z,101289.20
2023-10-10T05:57:48.173Z,101281.60
2023-10-10T06:00:15.059Z,101280.60
2023-10-10T06:02:48.327Z,101270.80
2023-10-10T06:05:18.702Z,101269.20
2023-10-10T06:07:45.412Z,101273.00
2023-10-10T06:10:16.993Z,101275.40
2023-10-10T06:12:46.125Z,101269.00
2023-10-10T06:15:18.374Z,101266.80
2023-10-10T06:17:45.845Z,101260.60
2023-10-10T06:20:22.443Z,101259.60
2023-10-10T06:22:49.217Z,101249.40
2023-10-10T06:25:18.155Z,101245.00
2023-10-10T06:27:55.117Z,101246.20
2023-10-10T06:30:21.963Z,101240.20
2023-10-10T06:32:48.955Z,101236.00
2023-10-10T06:35:22.474Z,101241.20
2023-10-10T06:37:52.606Z,101244.60
2023-10-10T06:40:29.188Z,101246.60
2023-10-10T06:42:58.449Z,101244.00
2023-10-10T06:45:35.142Z,101239.20
2023-10-10T06:48:02.280Z,101241.40
2023-10-10T06:50:32.649Z,101241.80
2023-10-10T06:53:01.099Z,101237.40
2023-10-10T06:55:37.194Z,101234.00
2023-10-10T06:58:06.049Z,101237.80
2023-10-10T07:00:33.180Z,101227.60
2023-10-10T07:03:00.479Z,101228.00
2023-10-10T07:05:28.287Z,101219.00
2023-10-10T07:07:59.127Z,101205.60
2023-10-10T07:10:33.664Z,101194.80
2023-10-10T07:13:01.815Z,101192.80
2023-10-10T07:15:35.553Z,101201.80
2023-10-10T07:18:31.865Z,101199.60
2023-10-10T07:21:08.080Z,101200.60
2023-10-10T07:23:38.936Z,101196.20
2023-10-10T07:26:22.333Z,101197.00
2023-10-10T07:28:50.132Z,101191.60
2023-10-10T07:31:21.528Z,101186.40
2023-10-10T07:33:56.389Z,101184.20
2023-10-10T07:36:28.288Z,101176.40
2023-10-10T07:39:15.575Z,101176.80
2023-10-10T07:41:45.690Z,101170.40
2023-10-10T07:44:17.284Z,101166.00
2023-10-10T07:47:03.111Z,101162.80
2023-10-10T07:49:29.876Z,101157.20
2023-10-10T07:52:02.793Z,101156.00
2023-10-10T07:54:39.315Z,101146.60
2023-10-10T07:57:12.207Z,101137.40
2023-10-10T07:59:39.103Z,101134.00
2023-10-10T08:02:20.704Z,101131.20
2023-10-10T08:04:51.090Z,101119.20
2023-10-10T08:07:18.905Z,101118.60
2023-10-10T08:09:48.854Z,101115.80
2023-10-10T08:12:17.009Z,101118.80
2023-10-10T08:14:44.175Z,101112.80
2023-10-10T08:17:20.141Z,101116.20
2023-10-10T08:19:51.936Z,101114.40
2023-10-10T08:22:26.148Z,101116.80
2023-10-10T08:24:52.913Z,101112.60
2023-10-10T08:27:19.526Z,101112.40
2023-10-10T08:29:47.842Z,101106.40
2023-10-10T08:32:14.413Z,101099.60
2023-10-10T08:34:43.258Z,101093.60
2023-10-10T08:37:10.550Z,101088.00
2023-10-10T08:39:40.231Z,101084.80
2023-10-10T08:42:11.497Z,101083.40
2023-10-10T08:44:40.587Z,101080.40
2023-10-10T08:47:19.882Z,101074.80
2023-10-10T08:49:48.094Z,101068.20
2023-10-10T08:52:17.878Z,101069.60
2023-10-10T08:54:45.800Z,101063.00
2023-10-10T08:57:13.055Z,101059.60
2023-10-10T08:59:42.921Z,101058.20
2023-10-10T09:02:12.836Z,101060.20
2023-10-10T09:04:39.508Z,101061.40
2023-10-10T09:07:20.637Z,101060.20
2023-10-10T09:10:04.915Z,101056.00
2023-10-10T09:12:53.294Z,101059.40
2023-10-10T09:15:20.433Z,101055.80
2023-10-10T09:17:58.112Z,101050.60
2023-10-10T09:20:32.147Z,101040.40
2023-10-10T09:23:12.495Z,101038.60
2023-10-10T09:25:49.310Z,101032.80
2023-10-10T09:28:19.024Z,101024.80
2023-10-10T09:30:50.834Z,101025.00
2023-10-10T09:33:28.635Z,101019.80
2023-10-10T09:36:16.492Z,101010.20
2023-10-10T09:38:47.662Z,101009.00
2023-10-10T09:41:36.893Z,101007.40
2023-10-10T09:44:22.190Z,100999.00
2023-10-10T09:47:16.438Z,101000.20
2023-10-10T09:49:45.020Z,101009.00
2023-10-10T09:52:34.306Z,100994.80
2023-10-10T09:55:08.994Z,100992.00
2023-10-10T09:57:43.501Z,100990.60
2023-10-10T10:00:26.616Z,100979.80
2023-10-10T10:02:58.373Z,100980.40
2023-10-10T10:05:29.942Z,100974.40
2023-10-10T10:08:22.713Z,100975.00
2023-10-10T10:11:11.631Z,100952.20
2023-10-10T10:14:12.484Z,100944.20
2023-10-10T10:16:52.228Z,100941.60
2023-10-10T10:19:28.276Z,100949.20
2023-10-10T10:22:14.552Z,100949.40
2023-10-10T10:24:47.225Z,100948.60
2023-10-10T10:27:32.215Z,100942.40
2023-10-10T10:30:20.872Z,100943.00
2023-10-10T10:32:56.061Z,100945.00
2023-10-10T10:36:00.062Z,100938.40
2023-10-10T10:38:26.939Z,100939.00
2023-10-10T10:41:07.802Z,100933.20
2023-10-10T10:43:39.518Z,100924.00
2023-10-10T10:46:27.409Z,100926.80
2023-10-10T10:49:06.387Z,100930.80
2023-10-10T10:51:42.934Z,100924.40
2023-10-10T10:54:11.664Z,100922.00
2023-10-10T10:56:39.994Z,100929.20
2023-10-10T10:59:14.828Z,100920.00
2023-10-10T11:01:52.558Z,100921.00
2023-10-10T11:04:34.311Z,100916.00
2023-10-10T11:07:08.223Z,100906.00
2023-10-10T11:09:38.093Z,100911.60
2023-10-10T11:12:09.691Z,100909.40
2023-10-10T11:14:47.356Z,100903.60
2023-10-10T11:17:20.461Z,100892.20
2023-10-10T11:19:48.761Z,100886.20
2023-10-10T11:22:36.423Z,100884.60
2023-10-10T11:25:12.334Z,100882.20
2023-10-10T11:27:45.617Z,100871.60
2023-10-10T11:30:24.929Z,100871.80
2023-10-10T11:33:05.829Z,100879.80
2023-10-10T11:35:35.322Z,100880.80
2023-10-10T11:38:09.698Z,100879.80
2023-10-10T11:40:37.548Z,100869.60
2023-10-10T11:43:06.686Z,100860.80
2023-10-10T11:45:41.973Z,100862.40
2023-10-10T11:48:13.253Z,100858.80
2023-10-10T11:50:43.942Z,100855.60
2023-10-10T11:53:24.546Z,100850.80
2023-10-10T11:55:56.635Z,100838.40
2023-10-10T11:58:36.388Z,100834.00
2023-10-10T12:01:06.347Z,100826.00
2023-10-10T12:03:40.388Z,100824.60
2023-10-10T12:06:14.909Z,100823.80
2023-10-10T12:08:49.745Z,100820.60
2023-10-10T12:11:22.320Z,100807.80
2023-10-10T12:13:51.355Z,100799.60
2023-10-10T12:16:24.117Z,100798.20
2023-10-10T12:18:51.579Z,100788.80
2023-10-10T12:21:22.426Z,100778.20
2023-10-10T12:24:02.146Z,100774.80
2023-10-10T12:26:30.266Z,100775.20
2023-10-10T12:28:56.801Z,100775.20
2023-10-10T12:31:23.998Z,100770.20
2023-10-10T12:33:53.842Z,100763.20
2023-10-10T12:36:29.532Z,100753.60
2023-10-10T12:38:58.303Z,100756.00
2023-10-10T12:41:25.319Z,100746.80
2023-10-10T12:43:51.885Z,100737.60
2023-10-10T12:46:21.198Z,100731.00
2023-10-10T12:48:51.663Z,100725.80
2023-10-10T12:51:20.654Z,100722.60
2023-10-10T12:53:47.289Z,100707.80
2023-10-10T12:56:22.254Z,100696.80
2023-10-10T12:59:08.223Z,100694.20
2023-10-10T13:01:47.849Z,100696.40
2023-10-10T13:04:18.399Z,100696.60
2023-10-10T13:06:52.246Z,100685.40
2023-10-10T13:09:19.703Z,100676.80
2023-10-10T13:11:46.565Z,100664.40
2023-10-10T13:14:16.025Z,100658.60
2023-10-10T13:16:42.692Z,100654.20
2023-10-10T13:19:14.609Z,100649.60
2023-10-10T13:21:43.321Z,100652.00
2023-10-10T13:24:12.330Z,100651.20
2023-10-10T13:26:40.757Z,100645.80
2023-10-10T13:29:09.246Z,100642.20
2023-10-10T13:31:38.556Z,100639.40
2023-10-10T13:34:05.431Z,100641.80
2023-10-10T13:36:35.063Z,100641.20
2023-10-10T13:39:07.826Z,100635.00
2023-10-10T13:41:36.689Z,100631.20
2023-10-10T13:44:04.651Z,100620.00
2023-10-10T13:46:35.397Z,100615.40
2023-10-10T13:49:09.499Z,100615.80
2023-10-10T13:51:42.109Z,100614.60
2023-10-10T13:54:08.974Z,100611.00
2023-10-10T13:56:36.240Z,100602.80
2023-10-10T13:59:05.514Z,100601.40
2023-10-10T14:01:37.428Z,100593.20
2023-10-10T14:04:26.840Z,100576.40
2023-10-10T14:06:55.065Z,100569.80
2023-10-10T14:09:31.982Z,100567.60
2023-10-10T14:12:01.998Z,100559.60
2023-10-10T14:14:32.159Z,100542.60
2023-10-10T14:16:59.742Z,100539.60
2023-10-10T14:19:26.725Z,100526.80
2023-10-10T14:21:54.242Z,100521.80
2023-10-10T14:24:22.124Z,100516.40
2023-10-10T14:26:49.490Z,100511.40
2023-10-10T14:29:17.306Z,100514.80
2023-10-10T14:31:45.892Z,100513.00
2023-10-10T14:34:25.256Z,100502.20
2023-10-10T14:36:54.078Z,100490.60
2023-10-10T14:39:32.872Z,100475.60
2023-10-10T14:41:59.742Z,100467.80
2023-10-10T14:44:29.188Z,100469.40
2023-10-10T14:46:58.474Z,100456.60
2023-10-10T14:49:31.317Z,100444.40
2023-10-10T14:52:05.085Z,100438.80
2023-10-10T14:54:41.633Z,100435.60
2023-10-10T14:57:16.584Z,100430.40
2023-10-10T14:59:43.610Z,100421.60
2023-10-10T15:02:13.011Z,100407.20
2023-10-10T15:04:40.508Z,100404.60
2023-10-10T15:07:07.374Z,100393.40
2023-10-10T15:09:36.601Z,100387.40
2023-10-10T15:12:03.998Z,100381.20
2023-10-10T15:14:34.929Z,100370.40
2023-10-10T15:17:05.000Z,100362.00
2023-10-10T15:19:32.746Z,100358.00
2023-10-10T15:21:59.706Z,100345.20
2023-10-10T15:24:27.612Z,100337.80
2023-10-10T15:26:56.624Z,100335.60
2023-10-10T15:29:23.349Z,100320.60
2023-10-10T15:31:51.804Z,100315.40
2023-10-10T15:34:18.966Z,100312.20
2023-10-10T15:36:46.395Z,100300.80
2023-10-10T15:39:13.900Z,100291.80
2023-10-10T15:41:43.012Z,100287.60
2023-10-10T15:44:12.672Z,100274.00
2023-10-10T15:46:43.024Z,100265.00
2023-10-10T15:49:25.237Z,100261.80
2023-10-10T15:52:04.415Z,100247.40
2023-10-10T15:54:34.235Z,100245.60
2023-10-10T15:57:09.051Z,100233.60
2023-10-10T15:59:36.509Z,100227.60
2023-10-10T16:02:08.890Z,100211.40
2023-10-10T16:04:35.656Z,100205.60
2023-10-10T16:07:05.535Z,100193.80
2023-10-10T16:09:32.269Z,100184.00
2023-10-10T16:11:58.955Z,100163.60
2023-10-10T16:14:26.303Z,100147.40
2023-10-10T16:16:55.262Z,100146.60
2023-10-10T16:19:26.752Z,100124.00
2023-10-10T16:21:55.680Z,100105.20
2023-10-10T16:24:28.158Z,100092.80
2023-10-10T16:26:59.611Z,100089.80
2023-10-10T16:29:33.409Z,100089.40
2023-10-10T16:32:08.874Z,100091.00
2023-10-10T16:34:40.117Z,100088.00
2023-10-10T16:37:13.579Z,100078.60
2023-10-10T16:39:44.810Z,100057.60
2023-10-10T16:42:12.100Z,100037.00
2023-10-10T16:44:39.951Z,100017.80
2023-10-10T16:47:06.653Z,99999.20
2023-10-10T16:49:37.472Z,99998.40
2023-10-10T16:52:06.352Z,99999.60
2023-10-10T16:54:35.963Z,100004.00
2023-10-10T16:57:04.194Z,99983.80
2023-10-10T16:59:30.892Z,99979.40
2023-10-10T17:01:58.131Z,99968.20
2023-10-10T17:04:25.128Z,99958.00
2023-10-10T17:06:51.768Z,99936.00
2023-10-10T17:09:18.452Z,99918.60
2023-10-10T17:11:50.813Z,99899.20
2023-10-10T17:14:19.360Z,99890.60
2023-10-10T17:16:45.843Z,99865.20
2023-10-10T17:19:17.309Z,99866.40
2023-10-10T17:21:48.098Z,99846.60
2023-10-10T17:24:22.065Z,99849.40
2023-10-10T17:26:49.124Z,99839.40
2023-10-10T17:29:16.379Z,99834.80
2023-10-10T17:31:43.791Z,99824.20
2023-10-10T17:34:17.275Z,99816.40
2023-10-10T17:36:44.044Z,99820.80
2023-10-10T17:39:15.749Z,99814.80
2023-10-10T17:41:43.132Z,99809.80
2023-10-10T17:44:09.628Z,99805.80
2023-10-10T17:46:36.305Z,99800.40
2023-10-10T17:49:02.991Z,99806.80
2023-10-10T17:51:33.490Z,99805.60
2023-10-10T17:54:01.708Z,99793.40
2023-10-10T17:56:29.146Z,99782.20
2023-10-10T17:58:55.724Z,99765.60
2023-10-10T18:01:23.083Z,99752.20
2023-10-10T18:03:54.768Z,99753.00
2023-10-10T18:06:24.042Z,99740.60
2023-10-10T18:08:54.605Z,99734.80
2023-10-10T18:11:26.379Z,99738.60
2023-10-10T18:13:53.267Z,99719.80
2023-10-10T18:16:23.234Z,99705.20
2023-10-10T18:18:52.258Z,99720.00
2023-10-10T18:21:21.849Z,99714.00
2023-10-10T18:23:50.626Z,99714.20
2023-10-10T18:26:23.325Z,99703.00
2023-10-10T18:28:54.734Z,99700.80
2023-10-10T18:31:30.040Z,99703.00
2023-10-10T18:33:57.341Z,99686.60
2023-10-10T18:36:24.646Z,99677.40
2023-10-10T18:38:51.754Z,99654.20
2023-10-10T18:41:23.626Z,99652.20
2023-10-10T18:43:51.679Z,99639.00
2023-10-10T18:46:18.312Z,99637.60
2023-10-10T18:48:45.998Z,99639.20
2023-10-10T18:51:16.492Z,99634.00
2023-10-10T18:53:48.690Z,99622.20
2023-10-10T18:56:15.589Z,99628.00
2023-10-10T18:58:42.632Z,99623.60
2023-10-10T19:01:11.839Z,99610.80
2023-10-10T19:03:48.625Z,99599.20
2023-10-10T19:06:20.625Z,99596.60
2023-10-10T19:08:48.907Z,99585.40
2023-10-10T19:11:23.932Z,99575.60
2023-10-10T19:13:50.837Z,99565.40
2023-10-10T19:16:19.021Z,99566.00
2023-10-10T19:18:46.682Z,99550.80
2023-10-10T19:21:16.208Z,99550.00
2023-10-10T19:23:44.161Z,99539.40
2023-10-10T19:26:13.133Z,99527.40
2023-10-10T19:28:42.211Z,99524.40
2023-10-10T19:31:08.889Z,99529.20
2023-10-10T19:33:35.841Z,99517.00
2023-10-10T19:36:02.549Z,99500.40
2023-10-10T19:38:29.197Z,99507.60
2023-10-10T19:41:06.094Z,99510.60
2023-10-10T19:43:39.825Z,99506.80
2023-10-10T19:46:13.066Z,99500.80
2023-10-10T19:48:40.791Z,99516.80
2023-10-10T19:51:17.279Z,99501.80
2023-10-10T19:53:49.530Z,99487.40
2023-10-10T19:56:16.234Z,99490.60
2023-10-10T19:58:45.836Z,99466.40
2023-10-10T20:01:16.442Z,99463.00
2023-10-10T20:03:43.138Z,99457.80
2023-10-10T20:06:20.511Z,99439.80
2023-10-10T20:08:48.825Z,99432.80
2023-10-10T20:11:15.637Z,99432.00
2023-10-10T20:13:43.369Z,99423.40
2023-10-10T20:16:15.625Z,99416.80
2023-10-10T20:18:45.832Z,99417.60
2023-10-10T20:21:16.143Z,99393.00
2023-10-10T20:23:43.351Z,99406.20
2023-10-10T20:26:20.404Z,99402.60
2023-10-10T20:28:48.097Z,99414.80
2023-10-10T20:31:20.057Z,99399.80
2023-10-10T20:33:50.801Z,99387.00
2023-10-10T20:36:17.952Z,99374.20
2023-10-10T20:38:45.195Z,99376.20
2023-10-10T20:41:14.498Z,99379.00
2023-10-10T20:43:42.713Z,99392.40
2023-10-10T20:46:18.498Z,99382.80
2023-10-10T20:48:48.550Z,99366.20
2023-10-10T20:51:15.565Z,99343.80
2023-10-10T20:53:43.970Z,99352.00
2023-10-10T20:56:13.787Z,99361.00
2023-10-10T20:58:40.551Z,99351.20
2023-10-10T21:01:16.338Z,99349.60
2023-10-10T21:03:43.159Z,99340.00
2023-10-10T21:06:11.917Z,99339.00
2023-10-10T21:08:39.482Z,99347.40
2023-10-10T21:11:10.321Z,99330.80
2023-10-10T21:13:37.522Z,99330.80
2023-10-10T21:16:15.157Z,99334.40
2023-10-10T21:18:43.194Z,99343.40
2023-10-10T21:21:11.376Z,99331.80
2023-10-10T21:23:39.151Z,99319.40
2023-10-10T21:26:15.854Z,99327.60
2023-10-10T21:28:43.557Z,99298.80
2023-10-10T21:31:11.638Z,99324.20
2023-10-10T21:33:44.250Z,99306.40
2023-10-10T21:36:11.979Z,99303.40
2023-10-10T21:38:41.002Z,99290.80
2023-10-10T21:41:09.903Z,99289.40
2023-10-10T21:43:37.658Z,99271.20
2023-10-10T21:46:06.551Z,99268.80
2023-10-10T21:48:33.308Z,99265.20
2023-10-10T21:51:02.411Z,99251.00
2023-10-10T21:53:31.187Z,99258.20
2023-10-10T21:56:00.159Z,99242.00
2023-10-10T21:58:27.033Z,99257.00
2023-10-10T22:00:55.926Z,99266.00
2023-10-10T22:03:23.591Z,99260.60
2023-10-10T22:05:50.382Z,99249.60
2023-10-10T22:08:17.233Z,99241.00
2023-10-10T22:10:45.807Z,99255.60
2023-10-10T22:13:15.414Z,99243.80
2023-10-10T22:15:42.748Z,99232.80
2023-10-10T22:18:12.063Z,99243.00
2023-10-10T22:20:39.487Z,99241.20
2023-10-10T22:23:06.318Z,99234.20
2023-10-10T22:25:34.587Z,99218.40
2023-10-10T22:28:01.937Z,99224.60
2023-10-10T22:30:33.565Z,99216.20
2023-10-10T22:33:03.141Z,99210.40
2023-10-10T22:35:33.088Z,99215.40
2023-10-10T22:38:00.729Z,99199.80
2023-10-10T22:40:27.903Z,99189.60
2023-10-10T22:42:57.061Z,99197.40
2023-10-10T22:45:24.042Z,99179.60
2023-10-10T22:47:57.283Z,99161.20
2023-10-10T22:50:30.896Z,99151.00
2023-10-10T22:53:01.548Z,99133.60
2023-10-10T22:55:33.806Z,99115.40
2023-10-10T22:58:06.836Z,99106.20
2023-10-10T23:00:40.339Z,99116.60
2023-10-10T23:03:09.788Z,99099.80
2023-10-10T23:05:42.416Z,99106.80
2023-10-10T23:08:09.271Z,99114.80
2023-10-10T23:10:39.595Z,99111.40
2023-10-10T23:13:13.313Z,99119.20
2023-10-10T23:15:40.346Z,99124.80
2023-10-10T23:18:10.613Z,99113.20
2023-10-10T23:20:38.350Z,99112.20
2023-10-10T23:23:08.997Z,99111.60
2023-10-10T23:25:36.050Z,99119.00
2023-10-10T23:28:04.149Z,99120.00
2023-10-10T23:30:33.651Z,99117.60
2023-10-10T23:33:03.227Z,99122.60
2023-10-10T23:35:30.569Z,99116.00
2023-10-10T23:38:01.061Z,99120.40
2023-10-10T23:40:46.786Z,99114.40
2023-10-10T23:43:19.720Z,99117.00
2023-10-10T23:45:57.347Z,99112.20
2023-10-10T23:48:33.147Z,99100.60
2023-10-10T23:51:00.061Z,99095.80
2023-10-10T23:53:26.931Z,99081.40
2023-10-10T23:55:59.429Z,99079.40
2023-10-10T23:58:26.314Z,99075.00
